createdAt,value
2017-12-23T00:01:27.525Z,7.10
2017-12-23T00:03:55.078Z,7.10
2017-12-23T00:06:23.468Z,7.10
2017-12-23T00:08:51.205Z,7.10
2017-12-23T00:11:19.590Z,7.00
2017-12-23T00:13:48.525Z,7.00
2017-12-23T00:16:17.297Z,7.00
2017-12-23T00:18:44.945Z,7.00
2017-12-23T00:21:13.120Z,7.00
2017-12-23T00:23:40.746Z,7.00
2017-12-23T00:26:08.396Z,7.00
2017-12-23T00:28:36.797Z,6.90
2017-12-23T00:31:05.153Z,6.90
2017-12-23T00:33:32.748Z,6.90
2017-12-23T00:36:00.360Z,6.90
2017-12-23T00:38:28.734Z,6.90
2017-12-23T00:40:56.372Z,6.90
2017-12-23T00:43:23.958Z,6.90
2017-12-23T00:45:51.568Z,6.90
2017-12-23T00:48:19.183Z,6.80
2017-12-23T00:50:47.507Z,6.80
2017-12-23T00:53:15.123Z,6.80
2017-12-23T00:55:42.888Z,6.80
2017-12-23T00:58:10.497Z,6.90
2017-12-23T01:00:38.961Z,6.90
2017-12-23T01:03:07.393Z,6.90
2017-12-23T01:05:35.053Z,6.80
2017-12-23T01:08:02.613Z,6.80
2017-12-23T01:10:30.177Z,6.90
2017-12-23T01:12:58.323Z,6.80
2017-12-23T01:15:26.032Z,6.80
2017-12-23T01:17:53.623Z,6.90
2017-12-23T01:20:21.544Z,6.90
2017-12-23T01:22:49.153Z,6.90
2017-12-23T01:25:17.511Z,6.90
2017-12-23T01:27:45.090Z,6.90
2017-12-23T01:30:12.673Z,7.00
2017-12-23T01:32:40.580Z,6.90
2017-12-23T01:35:08.157Z,7.00
2017-12-23T01:37:35.718Z,6.90
2017-12-23T01:40:03.362Z,6.90
2017-12-23T01:42:30.948Z,6.80
2017-12-23T01:44:58.584Z,6.80
2017-12-23T01:47:26.987Z,6.80
2017-12-23T01:49:54.599Z,6.80
2017-12-23T01:52:22.190Z,6.80
2017-12-23T01:54:49.822Z,6.80
2017-12-23T01:57:17.417Z,6.70
2017-12-23T01:59:45.115Z,6.80
2017-12-23T02:02:12.723Z,6.80
2017-12-23T02:04:40.361Z,6.80
2017-12-23T02:07:08.027Z,6.80
2017-12-23T02:09:36.418Z,6.70
2017-12-23T02:12:04.859Z,6.70
2017-12-23T02:14:32.433Z,6.70
2017-12-23T02:17:00.144Z,6.60
2017-12-23T02:19:28.040Z,6.60
2017-12-23T02:21:55.638Z,6.60
2017-12-23T02:24:23.977Z,6.60
2017-12-23T02:26:51.546Z,6.60
2017-12-23T02:29:19.198Z,6.60
2017-12-23T02:31:46.762Z,6.70
2017-12-23T02:34:14.802Z,6.70
2017-12-23T02:36:42.414Z,6.70
2017-12-23T02:39:10.055Z,6.60
2017-12-23T02:41:37.630Z,6.60
2017-12-23T02:44:05.191Z,6.50
2017-12-23T02:46:32.801Z,6.50
2017-12-23T02:49:00.363Z,6.50
2017-12-23T02:51:28.079Z,6.40
2017-12-23T02:53:56.262Z,6.30
2017-12-23T02:56:24.605Z,6.20
2017-12-23T02:58:52.272Z,6.20
2017-12-23T03:01:19.905Z,6.20
2017-12-23T03:03:47.458Z,6.20
2017-12-23T03:06:15.071Z,6.20
2017-12-23T03:08:42.645Z,6.20
2017-12-23T03:11:10.394Z,6.20
2017-12-23T03:13:37.949Z,6.20
2017-12-23T03:16:05.630Z,6.20
2017-12-23T03:18:33.633Z,6.30
2017-12-23T03:21:01.409Z,6.30
2017-12-23T03:23:28.958Z,6.30
2017-12-23T03:25:56.548Z,6.40
2017-12-23T03:28:24.111Z,6.50
2017-12-23T03:30:52.521Z,6.50
2017-12-23T03:33:20.115Z,6.40
2017-12-23T03:35:47.679Z,6.50
2017-12-23T03:38:15.270Z,6.50
2017-12-23T03:40:42.850Z,6.60
2017-12-23T03:43:11.572Z,6.60
2017-12-23T03:45:39.259Z,6.60
2017-12-23T03:48:06.809Z,6.70
2017-12-23T03:50:34.721Z,6.70
2017-12-23T03:53:02.342Z,6.80
2017-12-23T03:55:30.061Z,6.80
2017-12-23T03:57:58.391Z,6.80
2017-12-23T04:00:25.967Z,6.80
2017-12-23T04:02:53.656Z,6.80
2017-12-23T04:05:21.251Z,6.80
2017-12-23T04:07:48.834Z,6.80
2017-12-23T04:10:16.414Z,6.80
2017-12-23T04:12:44.029Z,6.70
2017-12-23T04:15:11.824Z,6.70
2017-12-23T04:17:39.450Z,6.70
2017-12-23T04:20:07.045Z,6.70
2017-12-23T04:22:34.671Z,6.70
2017-12-23T04:25:02.723Z,6.60
2017-12-23T04:27:31.092Z,6.60
2017-12-23T04:29:58.655Z,6.60
2017-12-23T04:32:26.307Z,6.70
2017-12-23T04:34:53.881Z,6.70
2017-12-23T04:37:22.253Z,6.70
2017-12-23T04:39:50.656Z,6.70
2017-12-23T04:42:18.267Z,6.60
2017-12-23T04:44:45.848Z,6.70
2017-12-23T04:47:14.359Z,6.70
2017-12-23T04:49:42.656Z,6.60
2017-12-23T04:52:10.986Z,6.70
2017-12-23T04:54:39.350Z,6.70
2017-12-23T04:57:07.905Z,6.60
2017-12-23T04:59:35.502Z,6.70
2017-12-23T05:02:03.058Z,6.70
2017-12-23T05:04:30.611Z,6.70
2017-12-23T05:06:58.202Z,6.70
2017-12-23T05:09:26.549Z,6.70
2017-12-23T05:11:54.171Z,6.60
2017-12-23T05:14:21.757Z,6.60
2017-12-23T05:16:49.379Z,6.60
2017-12-23T05:19:17.807Z,6.60
2017-12-23T05:21:45.959Z,6.60
2017-12-23T05:24:13.580Z,6.60
2017-12-23T05:26:42.045Z,6.60
2017-12-23T05:29:10.379Z,6.60
2017-12-23T05:31:37.941Z,6.60
2017-12-23T05:34:06.739Z,6.60
2017-12-23T05:36:34.926Z,6.60
2017-12-23T05:39:02.724Z,6.50
2017-12-23T05:41:31.130Z,6.50
2017-12-23T05:43:58.763Z,6.50
2017-12-23T05:46:26.341Z,6.50
2017-12-23T05:48:53.964Z,6.50
2017-12-23T05:51:21.539Z,6.50
2017-12-23T05:53:49.153Z,6.60
2017-12-23T05:56:16.734Z,6.50
2017-12-23T05:58:44.326Z,6.60
2017-12-23T06:01:11.931Z,6.50
2017-12-23T06:03:39.524Z,6.50
2017-12-23T06:06:07.529Z,6.50
2017-12-23T06:08:35.178Z,6.60
2017-12-23T06:11:02.790Z,6.60
2017-12-23T06:13:30.415Z,6.60
2017-12-23T06:15:57.971Z,6.60
2017-12-23T06:18:25.633Z,6.60
2017-12-23T06:20:53.266Z,6.60
2017-12-23T06:23:20.853Z,6.50
2017-12-23T06:25:49.158Z,6.40
2017-12-23T06:28:16.768Z,6.50
2017-12-23T06:30:45.042Z,6.50
2017-12-23T06:33:12.731Z,6.50
2017-12-23T06:35:40.346Z,6.50
2017-12-23T06:38:07.924Z,6.50
2017-12-23T06:40:35.552Z,6.50
2017-12-23T06:43:03.141Z,6.50
2017-12-23T06:45:31.525Z,6.60
2017-12-23T06:47:59.105Z,6.60
2017-12-23T06:50:27.667Z,6.70
2017-12-23T06:52:55.737Z,6.70
2017-12-23T06:55:23.414Z,6.70
2017-12-23T06:57:51.780Z,6.70
2017-12-23T07:00:19.488Z,6.60
2017-12-23T07:02:47.097Z,6.70
2017-12-23T07:05:14.694Z,6.70
2017-12-23T07:07:42.323Z,6.70
2017-12-23T07:10:09.889Z,6.70
2017-12-23T07:12:38.259Z,6.80
2017-12-23T07:15:06.673Z,6.80
2017-12-23T07:17:35.080Z,6.80
2017-12-23T07:20:02.733Z,6.80
2017-12-23T07:22:30.405Z,6.80
2017-12-23T07:24:58.003Z,6.80
2017-12-23T07:27:25.620Z,6.80
2017-12-23T07:29:53.225Z,6.90
2017-12-23T07:32:21.225Z,7.00
2017-12-23T07:34:48.958Z,7.00
2017-12-23T07:37:16.510Z,7.00
2017-12-23T07:39:44.103Z,7.10
2017-12-23T07:42:11.744Z,7.10
2017-12-23T07:44:39.366Z,7.10
2017-12-23T07:47:06.965Z,7.20
2017-12-23T07:49:34.976Z,7.20
2017-12-23T07:52:03.095Z,7.20
2017-12-23T07:54:30.687Z,7.20
2017-12-23T07:56:59.107Z,7.40
2017-12-23T07:59:26.726Z,7.30
2017-12-23T08:01:54.783Z,7.40
2017-12-23T08:04:22.386Z,7.50
2017-12-23T08:06:50.024Z,7.50
2017-12-23T08:09:19.155Z,7.50
2017-12-23T08:11:46.766Z,7.50
2017-12-23T08:14:14.366Z,7.50
2017-12-23T08:16:41.935Z,7.50
2017-12-23T08:19:09.564Z,7.50
2017-12-23T08:21:37.139Z,7.60
2017-12-23T08:24:04.838Z,7.60
2017-12-23T08:26:32.450Z,7.70
2017-12-23T08:29:00.067Z,7.70
2017-12-23T08:31:27.645Z,7.70
2017-12-23T08:33:55.234Z,7.70
2017-12-23T08:36:22.869Z,7.70
2017-12-23T08:38:50.445Z,7.70
2017-12-23T08:41:18.507Z,7.70
2017-12-23T08:43:46.158Z,7.80
2017-12-23T08:46:13.815Z,7.80
2017-12-23T08:48:42.625Z,7.90
2017-12-23T08:51:10.292Z,7.90
2017-12-23T08:53:37.878Z,7.90
2017-12-23T08:56:06.029Z,7.90
2017-12-23T08:58:33.626Z,8.00
2017-12-23T09:01:01.697Z,8.00
2017-12-23T09:03:29.787Z,8.00
2017-12-23T09:05:57.394Z,8.00
2017-12-23T09:08:25.188Z,8.00
2017-12-23T09:10:52.820Z,8.00
2017-12-23T09:13:20.454Z,8.00
2017-12-23T09:15:48.039Z,8.00
2017-12-23T09:18:15.625Z,8.10
2017-12-23T09:20:43.287Z,8.10
2017-12-23T09:23:10.958Z,8.10
2017-12-23T09:25:38.559Z,8.20
2017-12-23T09:28:06.251Z,8.20
2017-12-23T09:30:34.641Z,8.20
2017-12-23T09:33:03.268Z,8.20
2017-12-23T09:35:30.882Z,8.20
2017-12-23T09:37:58.474Z,8.20
2017-12-23T09:40:26.100Z,8.20
2017-12-23T09:42:54.478Z,8.30
2017-12-23T09:45:22.154Z,8.30
2017-12-23T09:47:49.771Z,8.30
2017-12-23T09:50:17.614Z,8.30
2017-12-23T09:52:45.252Z,8.30
2017-12-23T09:55:13.042Z,8.30
2017-12-23T09:57:40.662Z,8.40
2017-12-23T10:00:09.038Z,8.50
2017-12-23T10:02:37.398Z,8.60
2017-12-23T10:05:05.075Z,8.50
2017-12-23T10:07:32.692Z,8.60
2017-12-23T10:10:00.323Z,8.70
2017-12-23T10:12:27.964Z,8.60
2017-12-23T10:14:55.616Z,8.60
2017-12-23T10:17:23.209Z,8.50
2017-12-23T10:19:50.817Z,8.40
2017-12-23T10:22:18.401Z,8.40
2017-12-23T10:24:45.999Z,8.40
2017-12-23T10:27:14.379Z,8.50
2017-12-23T10:29:41.967Z,8.50
2017-12-23T10:32:09.586Z,8.50
2017-12-23T10:34:37.773Z,8.70
2017-12-23T10:37:05.355Z,8.80
2017-12-23T10:39:32.989Z,8.90
2017-12-23T10:42:00.573Z,8.90
2017-12-23T10:44:28.340Z,9.00
2017-12-23T10:46:55.971Z,9.10
2017-12-23T10:49:23.562Z,9.00
2017-12-23T10:51:51.545Z,9.00
2017-12-23T10:54:19.190Z,9.10
2017-12-23T10:56:46.779Z,9.20
2017-12-23T10:59:14.417Z,9.30
2017-12-23T11:01:42.475Z,9.20
2017-12-23T11:04:10.067Z,9.30
2017-12-23T11:06:37.712Z,9.40
2017-12-23T11:09:05.359Z,9.50
2017-12-23T11:11:33.015Z,9.60
2017-12-23T11:14:00.593Z,9.60
2017-12-23T11:16:28.269Z,9.60
2017-12-23T11:18:56.758Z,9.60
2017-12-23T11:21:24.364Z,9.60
2017-12-23T11:23:51.957Z,9.70
2017-12-23T11:26:19.639Z,9.80
2017-12-23T11:28:47.811Z,9.80
2017-12-23T11:31:15.375Z,9.80
2017-12-23T11:33:43.032Z,9.80
2017-12-23T11:36:10.650Z,9.90
2017-12-23T11:38:38.296Z,10.00
2017-12-23T11:41:05.930Z,10.00
2017-12-23T11:43:33.790Z,10.00
2017-12-23T11:46:01.363Z,10.00
2017-12-23T11:48:28.968Z,9.90
2017-12-23T11:50:56.561Z,9.80
2017-12-23T11:53:24.228Z,9.80
2017-12-23T11:55:52.085Z,9.80
2017-12-23T11:58:19.657Z,9.70
2017-12-23T12:00:47.212Z,9.70
2017-12-23T12:03:14.792Z,9.60
2017-12-23T12:05:43.865Z,9.70
2017-12-23T12:08:12.296Z,9.70
2017-12-23T12:10:40.638Z,9.80
2017-12-23T12:13:08.226Z,9.70
2017-12-23T12:15:35.843Z,9.70
2017-12-23T12:18:03.453Z,9.70
2017-12-23T12:20:31.138Z,9.70
2017-12-23T12:22:58.723Z,9.60
2017-12-23T12:25:26.356Z,9.40
2017-12-23T12:27:53.944Z,9.30
2017-12-23T12:30:21.579Z,9.30
2017-12-23T12:32:49.175Z,9.30
2017-12-23T12:35:16.938Z,9.30
2017-12-23T12:37:44.540Z,9.30
2017-12-23T12:40:12.618Z,9.20
2017-12-23T12:42:40.295Z,9.20
2017-12-23T12:45:07.861Z,9.20
2017-12-23T12:47:35.489Z,9.30
2017-12-23T12:50:03.135Z,9.30
2017-12-23T12:52:30.746Z,9.30
2017-12-23T12:54:58.316Z,9.30
2017-12-23T12:57:25.916Z,9.40
2017-12-23T12:59:53.475Z,9.40
2017-12-23T13:02:21.549Z,9.30
2017-12-23T13:04:49.842Z,9.40
2017-12-23T13:07:17.464Z,9.30
2017-12-23T13:09:45.094Z,9.30
2017-12-23T13:12:12.904Z,9.30
2017-12-23T13:14:40.484Z,9.40
2017-12-23T13:17:08.971Z,9.40
2017-12-23T13:19:37.310Z,9.40
2017-12-23T13:22:04.976Z,9.40
2017-12-23T13:24:32.731Z,9.50
2017-12-23T13:27:00.397Z,9.50
2017-12-23T13:29:27.960Z,9.50
2017-12-23T13:31:55.737Z,9.50
2017-12-23T13:34:23.335Z,9.50
2017-12-23T13:36:50.992Z,9.60
2017-12-23T13:39:18.586Z,9.60
2017-12-23T13:41:46.197Z,9.60
2017-12-23T13:44:14.093Z,9.60
2017-12-23T13:46:41.704Z,9.60
2017-12-23T13:49:09.519Z,9.60
2017-12-23T13:51:37.932Z,9.60
2017-12-23T13:54:05.584Z,9.60
2017-12-23T13:56:33.187Z,9.60
2017-12-23T13:59:00.794Z,9.60
2017-12-23T14:01:28.654Z,9.60
2017-12-23T14:03:56.492Z,9.60
2017-12-23T14:06:24.869Z,9.60
2017-12-23T14:08:52.443Z,9.60
2017-12-23T14:11:20.919Z,9.50
2017-12-23T14:13:49.454Z,9.50
2017-12-23T14:16:17.075Z,9.50
2017-12-23T14:18:44.723Z,9.50
2017-12-23T14:21:13.047Z,9.50
2017-12-23T14:23:40.662Z,9.50
2017-12-23T14:26:08.221Z,9.60
2017-12-23T14:28:35.782Z,9.60
2017-12-23T14:31:04.144Z,9.60
2017-12-23T14:33:31.975Z,9.50
2017-12-23T14:35:59.599Z,9.60
2017-12-23T14:38:27.362Z,9.60
2017-12-23T14:40:55.777Z,9.60
2017-12-23T14:43:23.381Z,9.60
2017-12-23T14:45:50.949Z,9.60
2017-12-23T14:48:18.602Z,9.60
2017-12-23T14:50:46.586Z,9.60
2017-12-23T14:53:14.980Z,9.50
2017-12-23T14:55:42.626Z,9.50
2017-12-23T14:58:10.390Z,9.60
2017-12-23T15:00:38.744Z,9.50
2017-12-23T15:03:06.333Z,9.50
2017-12-23T15:05:34.685Z,9.60
2017-12-23T15:08:02.284Z,9.60
2017-12-23T15:10:29.981Z,9.60
2017-12-23T15:12:57.608Z,9.60
2017-12-23T15:15:26.014Z,9.60
2017-12-23T15:17:53.644Z,9.60
2017-12-23T15:20:21.246Z,9.60
2017-12-23T15:22:48.862Z,9.60
2017-12-23T15:25:16.452Z,9.60
2017-12-23T15:27:44.114Z,9.60
2017-12-23T15:30:12.576Z,9.70
2017-12-23T15:32:40.949Z,9.70
2017-12-23T15:35:08.582Z,9.70
2017-12-23T15:37:36.152Z,9.70
2017-12-23T15:40:03.884Z,9.60
2017-12-23T15:42:31.459Z,9.70
2017-12-23T15:44:59.132Z,9.70
2017-12-23T15:47:27.538Z,9.60
2017-12-23T15:49:55.676Z,9.70
2017-12-23T15:52:23.338Z,9.70
2017-12-23T15:54:51.787Z,9.70
2017-12-23T15:57:19.904Z,9.60
2017-12-23T15:59:47.481Z,9.70
2017-12-23T16:02:15.108Z,9.70
2017-12-23T16:04:42.751Z,9.70
2017-12-23T16:07:10.366Z,9.70
2017-12-23T16:09:38.885Z,9.70
2017-12-23T16:12:06.487Z,9.70
2017-12-23T16:14:34.137Z,9.70
2017-12-23T16:17:02.513Z,9.80
2017-12-23T16:19:30.268Z,9.70
2017-12-23T16:21:57.903Z,9.70
2017-12-23T16:24:25.480Z,9.80
2017-12-23T16:26:53.092Z,9.80
2017-12-23T16:29:20.657Z,9.80
2017-12-23T16:31:49.448Z,9.80
2017-12-23T16:34:17.842Z,9.80
2017-12-23T16:36:45.431Z,9.80
2017-12-23T16:39:13.024Z,9.80
2017-12-23T16:41:40.656Z,9.90
2017-12-23T16:44:09.014Z,9.80
2017-12-23T16:46:36.610Z,9.80
2017-12-23T16:49:04.477Z,9.80
2017-12-23T16:51:32.143Z,9.80
2017-12-23T16:53:59.738Z,9.80
2017-12-23T16:56:27.362Z,9.80
2017-12-23T16:58:54.943Z,9.80
2017-12-23T17:01:22.564Z,9.80
2017-12-23T17:03:50.751Z,9.80
2017-12-23T17:06:18.366Z,9.80
2017-12-23T17:08:46.728Z,9.80
2017-12-23T17:11:14.299Z,9.80
2017-12-23T17:13:42.640Z,9.80
2017-12-23T17:16:10.235Z,9.80
2017-12-23T17:18:37.909Z,9.80
2017-12-23T17:21:05.505Z,9.80
2017-12-23T17:23:33.222Z,9.80
2017-12-23T17:26:00.840Z,9.80
2017-12-23T17:28:40.362Z,9.80
2017-12-23T17:31:08.004Z,9.80
2017-12-23T17:33:35.603Z,9.80
2017-12-23T17:36:03.266Z,9.80
2017-12-23T17:38:30.876Z,9.80
2017-12-23T17:40:58.539Z,9.80
2017-12-23T17:43:26.868Z,9.90
2017-12-23T17:45:54.512Z,9.80
2017-12-23T17:48:22.136Z,9.90
2017-12-23T17:50:50.442Z,9.90
2017-12-23T17:53:18.025Z,9.90
2017-12-23T17:55:45.668Z,9.80
2017-12-23T17:58:13.221Z,9.80
2017-12-23T18:00:41.677Z,9.80
2017-12-23T18:03:09.448Z,9.80
2017-12-23T18:05:37.277Z,9.80
2017-12-23T18:08:05.062Z,9.80
2017-12-23T18:10:32.827Z,9.80
2017-12-23T18:13:00.444Z,9.70
2017-12-23T18:15:28.109Z,9.70
2017-12-23T18:17:55.728Z,9.70
2017-12-23T18:20:24.207Z,9.70
2017-12-23T18:22:52.585Z,9.70
2017-12-23T18:25:21.096Z,9.70
2017-12-23T18:27:49.479Z,9.80
2017-12-23T18:30:17.643Z,9.80
2017-12-23T18:32:45.280Z,9.70
2017-12-23T18:35:12.979Z,9.70
2017-12-23T18:37:40.531Z,9.70
2017-12-23T18:40:08.173Z,9.70
2017-12-23T18:42:35.803Z,9.70
2017-12-23T18:45:03.566Z,9.70
2017-12-23T18:47:31.148Z,9.70
2017-12-23T18:49:59.449Z,9.70
2017-12-23T18:52:27.039Z,9.70
2017-12-23T18:54:54.622Z,9.70
2017-12-23T18:57:22.208Z,9.70
2017-12-23T18:59:50.314Z,9.70
2017-12-23T19:02:17.902Z,9.80
2017-12-23T19:04:46.399Z,9.80
2017-12-23T19:07:14.187Z,9.80
2017-12-23T19:09:41.840Z,9.80
2017-12-23T19:12:09.410Z,9.80
2017-12-23T19:14:37.013Z,9.80
2017-12-23T19:17:04.629Z,9.80
2017-12-23T19:19:33.922Z,9.80
2017-12-23T19:22:02.434Z,9.80
2017-12-23T19:24:30.095Z,9.80
2017-12-23T19:26:58.146Z,9.80
2017-12-23T19:29:26.443Z,9.90
2017-12-23T19:31:54.288Z,9.90
2017-12-23T19:34:22.822Z,9.90
2017-12-23T19:36:50.465Z,9.90
2017-12-23T19:39:18.095Z,10.00
2017-12-23T19:41:46.286Z,9.90
2017-12-23T19:44:13.882Z,10.00
2017-12-23T19:46:41.537Z,10.00
2017-12-23T19:49:09.535Z,10.00
2017-12-23T19:51:37.129Z,10.00
2017-12-23T19:54:05.318Z,9.90
2017-12-23T19:56:32.963Z,10.00
2017-12-23T19:59:01.298Z,10.00
2017-12-23T20:01:28.919Z,10.00
2017-12-23T20:03:56.519Z,10.00
2017-12-23T20:06:24.141Z,10.10
2017-12-23T20:08:51.727Z,10.10
2017-12-23T20:11:19.318Z,10.10
2017-12-23T20:13:46.894Z,10.10
2017-12-23T20:16:15.237Z,10.10
2017-12-23T20:18:43.602Z,10.10
2017-12-23T20:21:11.241Z,10.10
2017-12-23T20:23:39.078Z,10.10
2017-12-23T20:26:07.512Z,10.10
2017-12-23T20:28:35.091Z,10.10
2017-12-23T20:31:03.545Z,10.20
2017-12-23T20:33:31.128Z,10.20
2017-12-23T20:35:58.787Z,10.20
2017-12-23T20:38:27.130Z,10.20
2017-12-23T20:40:54.881Z,10.20
2017-12-23T20:43:23.312Z,10.20
2017-12-23T20:45:51.980Z,10.20
2017-12-23T20:48:19.633Z,10.20
2017-12-23T20:50:47.230Z,10.20
2017-12-23T20:53:15.434Z,10.20
2017-12-23T20:55:43.766Z,10.10
2017-12-23T20:58:11.406Z,10.10
2017-12-23T21:00:39.247Z,10.20
2017-12-23T21:03:07.653Z,10.10
2017-12-23T21:05:35.230Z,10.10
2017-12-23T21:08:02.920Z,10.20
2017-12-23T21:10:31.303Z,10.10
2017-12-23T21:12:58.879Z,10.10
2017-12-23T21:15:26.465Z,10.20
2017-12-23T21:17:54.183Z,10.10
2017-12-23T21:20:22.648Z,10.10
2017-12-23T21:22:50.279Z,10.10
2017-12-23T21:25:17.910Z,10.10
2017-12-23T21:27:46.251Z,10.10
2017-12-23T21:30:13.875Z,10.10
2017-12-23T21:32:41.563Z,10.20
2017-12-23T21:35:09.196Z,10.20
2017-12-23T21:37:36.936Z,10.20
2017-12-23T21:40:05.341Z,10.20
2017-12-23T21:42:33.310Z,10.20
2017-12-23T21:45:00.969Z,10.20
2017-12-23T21:47:28.638Z,10.20
2017-12-23T21:49:56.580Z,10.10
2017-12-23T21:52:24.210Z,10.20
2017-12-23T21:54:52.374Z,10.10
2017-12-23T21:57:20.626Z,10.00
2017-12-23T21:59:49.037Z,10.00
2017-12-23T22:02:16.632Z,10.00
2017-12-23T22:04:45.006Z,10.10
2017-12-23T22:07:12.634Z,10.00
2017-12-23T22:09:40.387Z,10.00
2017-12-23T22:12:07.967Z,9.90
2017-12-23T22:14:35.543Z,9.90
2017-12-23T22:17:03.159Z,10.00
2017-12-23T22:19:30.762Z,10.00
2017-12-23T22:21:58.967Z,10.00
2017-12-23T22:24:26.552Z,10.00
2017-12-23T22:26:54.125Z,10.10
2017-12-23T22:29:21.726Z,10.10
2017-12-23T22:31:49.353Z,10.10
2017-12-23T22:34:16.913Z,10.10
2017-12-23T22:36:44.610Z,10.10
2017-12-23T22:39:13.037Z,10.10
2017-12-23T22:41:40.806Z,10.00
2017-12-23T22:44:08.985Z,10.00
2017-12-23T22:46:36.559Z,10.10
2017-12-23T22:49:04.381Z,10.10
2017-12-23T22:51:31.987Z,10.10
2017-12-23T22:54:00.342Z,10.00
2017-12-23T22:56:27.979Z,10.00
2017-12-23T22:58:55.602Z,10.00
2017-12-23T23:01:23.204Z,10.00
2017-12-23T23:03:50.856Z,10.00
2017-12-23T23:06:18.548Z,10.00
2017-12-23T23:08:46.163Z,10.10
2017-12-23T23:11:13.873Z,10.10
2017-12-23T23:13:41.487Z,10.10
2017-12-23T23:16:09.040Z,10.10
2017-12-23T23:18:36.671Z,10.20
2017-12-23T23:21:04.292Z,10.20
2017-12-23T23:23:32.801Z,10.20
2017-12-23T23:26:00.741Z,10.20
2017-12-23T23:28:28.359Z,10.20
2017-12-23T23:30:56.882Z,10.20
2017-12-23T23:33:25.294Z,10.20
2017-12-23T23:35:52.883Z,10.20
2017-12-23T23:38:20.485Z,10.20
2017-12-23T23:40:48.074Z,10.20
2017-12-23T23:43:16.635Z,10.20
2017-12-23T23:45:44.248Z,10.20
2017-12-23T23:48:11.878Z,10.20
2017-12-23T23:50:39.772Z,10.20
2017-12-23T23:53:07.414Z,10.20
2017-12-23T23:55:35.093Z,10.30
2017-12-23T23:58:02.714Z,10.30
